createdAt,value
2017-01-22T00:00:59.796Z,0
2017-01-22T00:01:59.773Z,0
2017-01-22T00:02:59.767Z,0
2017-01-22T00:03:59.815Z,0
2017-01-22T00:04:59.805Z,0
2017-01-22T00:05:59.759Z,0
2017-01-22T00:06:59.777Z,0
2017-01-22T00:07:59.779Z,0
2017-01-22T00:08:59.780Z,0
2017-01-22T00:09:59.788Z,0
2017-01-22T00:10:59.758Z,0
2017-01-22T00:11:59.771Z,0
2017-01-22T00:12:59.782Z,0
2017-01-22T00:13:59.788Z,0
2017-01-22T00:14:59.796Z,0
2017-01-22T00:15:59.768Z,0
2017-01-22T00:16:59.796Z,0
2017-01-22T00:17:59.814Z,0
2017-01-22T00:18:59.786Z,0
2017-01-22T00:19:59.799Z,0
2017-01-22T00:20:59.834Z,0
2017-01-22T00:21:59.797Z,0
2017-01-22T00:22:59.785Z,0
2017-01-22T00:23:59.798Z,0
2017-01-22T00:24:59.789Z,0
2017-01-22T00:25:59.790Z,0
2017-01-22T00:26:59.780Z,0
2017-01-22T00:27:59.789Z,0
2017-01-22T00:28:59.831Z,0
2017-01-22T00:29:59.801Z,0
2017-01-22T00:30:59.786Z,0
2017-01-22T00:31:59.833Z,0
2017-01-22T00:32:59.809Z,0
2017-01-22T00:33:59.792Z,0
2017-01-22T00:34:59.805Z,0
2017-01-22T00:35:59.779Z,0
2017-01-22T00:36:59.784Z,0
2017-01-22T00:37:59.777Z,0
2017-01-22T00:38:59.813Z,0
2017-01-22T00:39:59.798Z,0
2017-01-22T00:40:59.791Z,0
2017-01-22T00:41:59.811Z,0
2017-01-22T00:42:59.809Z,0
2017-01-22T00:43:59.808Z,0
2017-01-22T00:44:59.780Z,0
2017-01-22T00:45:59.846Z,0
2017-01-22T00:46:59.787Z,0
2017-01-22T00:47:59.789Z,0
2017-01-22T00:48:59.801Z,0
2017-01-22T00:49:59.789Z,0
2017-01-22T00:50:59.824Z,0
2017-01-22T00:51:59.819Z,0
2017-01-22T00:52:59.822Z,0
2017-01-22T00:53:59.797Z,0
2017-01-22T00:54:59.808Z,0
2017-01-22T00:55:59.812Z,0
2017-01-22T00:56:59.821Z,0
2017-01-22T00:57:59.797Z,0
2017-01-22T00:58:59.805Z,0
2017-01-22T00:59:59.808Z,0
2017-01-22T01:00:59.790Z,0
2017-01-22T01:01:59.813Z,0
2017-01-22T01:02:59.845Z,0
2017-01-22T01:03:59.796Z,0
2017-01-22T01:04:59.812Z,0
2017-01-22T01:05:59.801Z,0
2017-01-22T01:06:59.794Z,0
2017-01-22T01:07:59.827Z,0
2017-01-22T01:08:59.805Z,0
2017-01-22T01:09:59.826Z,0
2017-01-22T01:10:59.825Z,0
2017-01-22T01:11:59.805Z,0
2017-01-22T01:12:59.816Z,0
2017-01-22T01:13:59.816Z,0
2017-01-22T01:14:59.829Z,0
2017-01-22T01:15:59.807Z,0
2017-01-22T01:16:59.828Z,0
2017-01-22T01:17:59.822Z,0
2017-01-22T01:18:59.816Z,0
2017-01-22T01:19:59.817Z,0
2017-01-22T01:20:59.803Z,0
2017-01-22T01:21:59.806Z,0
2017-01-22T01:22:59.829Z,0
2017-01-22T01:23:59.820Z,0
2017-01-22T01:24:59.824Z,0
2017-01-22T01:25:59.823Z,0
2017-01-22T01:26:59.827Z,0
2017-01-22T01:27:59.837Z,0
2017-01-22T01:28:59.819Z,0
2017-01-22T01:29:59.826Z,0
2017-01-22T01:30:59.856Z,0
2017-01-22T01:31:59.834Z,0
2017-01-22T01:32:59.806Z,0
2017-01-22T01:33:59.820Z,0
2017-01-22T01:34:59.816Z,0
2017-01-22T01:35:59.832Z,0
2017-01-22T01:36:59.824Z,0
2017-01-22T01:37:59.815Z,0
2017-01-22T01:38:59.836Z,0
2017-01-22T01:39:59.835Z,0
2017-01-22T01:40:59.828Z,0
2017-01-22T01:41:59.840Z,0
2017-01-22T01:42:59.835Z,0
2017-01-22T01:43:59.837Z,0
2017-01-22T01:44:59.821Z,0
2017-01-22T01:45:59.828Z,0
2017-01-22T01:46:59.817Z,0
2017-01-22T01:47:59.835Z,0
2017-01-22T01:48:59.832Z,0
2017-01-22T01:49:59.839Z,0
2017-01-22T01:50:59.839Z,0
2017-01-22T01:51:59.834Z,0
2017-01-22T01:52:59.824Z,0
2017-01-22T01:53:59.829Z,0
2017-01-22T01:54:59.857Z,0
2017-01-22T01:55:59.838Z,0
2017-01-22T01:56:59.857Z,0
2017-01-22T01:57:59.838Z,0
2017-01-22T01:58:59.834Z,0
2017-01-22T01:59:59.834Z,0
2017-01-22T02:00:59.851Z,0
2017-01-22T02:01:59.828Z,0
2017-01-22T02:02:59.868Z,0
2017-01-22T02:03:59.842Z,0
2017-01-22T02:04:59.832Z,0
2017-01-22T02:05:59.844Z,0
2017-01-22T02:06:59.840Z,0
2017-01-22T02:07:59.849Z,0
2017-01-22T02:08:59.839Z,0
2017-01-22T02:09:59.844Z,0
2017-01-22T02:10:59.860Z,0
2017-01-22T02:11:59.828Z,0
2017-01-22T02:12:59.876Z,0
2017-01-22T02:13:59.881Z,0
2017-01-22T02:14:59.834Z,0
2017-01-22T02:15:59.846Z,0
2017-01-22T02:16:59.849Z,0
2017-01-22T02:17:59.843Z,0
2017-01-22T02:18:59.841Z,0
2017-01-22T02:19:59.857Z,0
2017-01-22T02:20:59.828Z,0
2017-01-22T02:21:59.856Z,0
2017-01-22T02:22:59.842Z,0
2017-01-22T02:23:59.841Z,0
2017-01-22T02:24:59.850Z,0
2017-01-22T02:25:59.868Z,0
2017-01-22T02:26:59.849Z,0
2017-01-22T02:27:59.860Z,0
2017-01-22T02:28:59.892Z,0
2017-01-22T02:29:59.859Z,0
2017-01-22T02:30:59.836Z,0
2017-01-22T02:31:59.843Z,0
2017-01-22T02:32:59.868Z,0
2017-01-22T02:33:59.839Z,0
2017-01-22T02:34:59.861Z,0
2017-01-22T02:35:59.870Z,0
2017-01-22T02:36:59.851Z,0
2017-01-22T02:37:59.856Z,0
2017-01-22T02:38:59.848Z,0
2017-01-22T02:39:59.845Z,0
2017-01-22T02:40:59.868Z,0
2017-01-22T02:41:59.864Z,0
2017-01-22T02:42:59.864Z,0
2017-01-22T02:43:59.883Z,0
2017-01-22T02:44:59.844Z,0
2017-01-22T02:45:59.867Z,0
2017-01-22T02:46:59.872Z,0
2017-01-22T02:47:59.901Z,0
2017-01-22T02:48:59.882Z,0
2017-01-22T02:49:59.874Z,0
2017-01-22T02:50:59.865Z,0
2017-01-22T02:51:59.882Z,0
2017-01-22T02:52:59.853Z,0
2017-01-22T02:53:59.881Z,0
2017-01-22T02:54:59.867Z,0
2017-01-22T02:55:59.868Z,0
2017-01-22T02:56:59.855Z,0
2017-01-22T02:57:59.862Z,0
2017-01-22T02:58:59.876Z,0
2017-01-22T02:59:59.911Z,0
2017-01-22T03:00:59.894Z,0
2017-01-22T03:01:59.870Z,0
2017-01-22T03:02:59.869Z,0
2017-01-22T03:03:59.876Z,0
2017-01-22T03:04:59.921Z,0
2017-01-22T03:05:59.875Z,0
2017-01-22T03:06:59.896Z,0
2017-01-22T03:07:59.869Z,0
2017-01-22T03:08:59.856Z,0
2017-01-22T03:09:59.862Z,0
2017-01-22T03:10:59.882Z,0
2017-01-22T03:11:59.854Z,0
2017-01-22T03:12:59.869Z,0
2017-01-22T03:13:59.884Z,0
2017-01-22T03:14:59.888Z,0
2017-01-22T03:15:59.877Z,0
2017-01-22T03:16:59.880Z,0
2017-01-22T03:17:59.874Z,0
2017-01-22T03:18:59.886Z,0
2017-01-22T03:19:59.874Z,0
2017-01-22T03:20:59.903Z,0
2017-01-22T03:21:59.895Z,0
2017-01-22T03:22:59.866Z,0
2017-01-22T03:23:59.888Z,0
2017-01-22T03:24:59.891Z,0
2017-01-22T03:25:59.876Z,0
2017-01-22T03:26:59.888Z,0
2017-01-22T03:27:59.872Z,0
2017-01-22T03:28:59.886Z,0
2017-01-22T03:29:59.898Z,0
2017-01-22T03:30:59.900Z,0
2017-01-22T03:31:59.878Z,0
2017-01-22T03:32:59.893Z,0
2017-01-22T03:33:59.882Z,0
2017-01-22T03:34:59.895Z,0
2017-01-22T03:35:59.870Z,0
2017-01-22T03:36:59.897Z,0
2017-01-22T03:37:59.883Z,0
2017-01-22T03:38:59.892Z,0
2017-01-22T03:39:59.882Z,0
2017-01-22T03:40:59.891Z,0
2017-01-22T03:41:59.921Z,0
2017-01-22T03:42:59.897Z,0
2017-01-22T03:43:59.899Z,0
2017-01-22T03:44:59.888Z,0
2017-01-22T03:45:59.905Z,0
2017-01-22T03:46:59.877Z,0
2017-01-22T03:47:59.891Z,0
2017-01-22T03:48:59.898Z,0
2017-01-22T03:49:59.891Z,0
2017-01-22T03:50:59.882Z,0
2017-01-22T03:51:59.891Z,0
2017-01-22T03:52:59.939Z,0
2017-01-22T03:53:59.909Z,0
2017-01-22T03:54:59.914Z,0
2017-01-22T03:55:59.911Z,0
2017-01-22T03:56:59.890Z,0
2017-01-22T03:57:59.921Z,0
2017-01-22T03:58:59.890Z,0
2017-01-22T03:59:59.893Z,0
2017-01-22T04:00:59.910Z,0
2017-01-22T04:01:59.901Z,0
2017-01-22T04:02:59.915Z,0
2017-01-22T04:03:59.925Z,0
2017-01-22T04:04:59.916Z,0
2017-01-22T04:05:59.918Z,0
2017-01-22T04:06:59.895Z,0
2017-01-22T04:07:59.898Z,0
2017-01-22T04:08:59.889Z,0
2017-01-22T04:09:59.923Z,0
2017-01-22T04:10:59.917Z,0
2017-01-22T04:11:59.924Z,0
2017-01-22T04:12:59.914Z,0
2017-01-22T04:13:59.892Z,0
2017-01-22T04:14:59.921Z,0
2017-01-22T04:15:59.927Z,0
2017-01-22T04:16:59.914Z,0
2017-01-22T04:17:59.926Z,0
2017-01-22T04:18:59.914Z,0
2017-01-22T04:19:59.903Z,0
2017-01-22T04:20:59.969Z,0
2017-01-22T04:21:59.913Z,0
2017-01-22T04:22:59.909Z,0
2017-01-22T04:23:59.916Z,0
2017-01-22T04:24:59.940Z,0
2017-01-22T04:25:59.935Z,0
2017-01-22T04:26:59.929Z,0
2017-01-22T04:27:59.910Z,0
2017-01-22T04:28:59.954Z,0
2017-01-22T04:29:59.925Z,0
2017-01-22T04:30:59.915Z,0
2017-01-22T04:31:59.907Z,0
2017-01-22T04:32:59.919Z,0
2017-01-22T04:33:59.924Z,0
2017-01-22T04:34:59.915Z,0
2017-01-22T04:35:59.931Z,0
2017-01-22T04:36:59.928Z,0
2017-01-22T04:37:59.905Z,0
2017-01-22T04:38:59.923Z,0
2017-01-22T04:39:59.922Z,0
2017-01-22T04:40:59.937Z,0
2017-01-22T04:41:59.903Z,0
2017-01-22T04:42:59.897Z,0
2017-01-22T04:43:59.907Z,0
2017-01-22T04:44:59.923Z,0
2017-01-22T04:45:59.940Z,0
2017-01-22T04:46:59.921Z,0
2017-01-22T04:47:59.921Z,0
2017-01-22T04:48:59.932Z,0
2017-01-22T04:49:59.925Z,0
2017-01-22T04:50:59.923Z,0
2017-01-22T04:51:59.925Z,0
2017-01-22T04:52:59.931Z,0
2017-01-22T04:53:59.931Z,0
2017-01-22T04:54:59.944Z,0
2017-01-22T04:55:59.931Z,0
2017-01-22T04:56:59.947Z,0
2017-01-22T04:57:59.933Z,0
2017-01-22T04:58:59.926Z,0
2017-01-22T04:59:59.920Z,0
2017-01-22T05:00:59.942Z,0
2017-01-22T05:01:59.940Z,0
2017-01-22T05:02:59.973Z,0
2017-01-22T05:03:59.936Z,0
2017-01-22T05:04:59.927Z,0
2017-01-22T05:05:59.947Z,0
2017-01-22T05:06:59.929Z,0
2017-01-22T05:07:59.935Z,0
2017-01-22T05:08:59.932Z,0
2017-01-22T05:09:59.932Z,0
2017-01-22T05:10:59.956Z,0
2017-01-22T05:11:59.969Z,0
2017-01-22T05:12:59.956Z,0
2017-01-22T05:13:59.960Z,0
2017-01-22T05:14:59.946Z,0
2017-01-22T05:15:59.937Z,0
2017-01-22T05:16:59.937Z,0
2017-01-22T05:17:59.964Z,0
2017-01-22T05:18:59.967Z,0
2017-01-22T05:19:59.939Z,0
2017-01-22T05:20:59.965Z,0
2017-01-22T05:21:59.945Z,0
2017-01-22T05:22:59.956Z,0
2017-01-22T05:23:59.927Z,0
2017-01-22T05:24:59.956Z,0
2017-01-22T05:25:59.937Z,0
2017-01-22T05:26:59.950Z,0
2017-01-22T05:27:59.963Z,0
2017-01-22T05:28:59.924Z,0
2017-01-22T05:29:59.940Z,0
2017-01-22T05:30:59.948Z,0
2017-01-22T05:31:59.946Z,0
2017-01-22T05:32:59.937Z,0
2017-01-22T05:33:59.986Z,0
2017-01-22T05:34:59.948Z,0
2017-01-22T05:35:59.950Z,0
2017-01-22T05:36:59.982Z,0
2017-01-22T05:37:59.948Z,0
2017-01-22T05:38:59.955Z,0
2017-01-22T05:39:59.949Z,0
2017-01-22T05:40:59.945Z,0
2017-01-22T05:41:59.947Z,0
2017-01-22T05:42:59.962Z,0
2017-01-22T05:43:59.948Z,0
2017-01-22T05:44:59.956Z,0
2017-01-22T05:45:59.957Z,0
2017-01-22T05:46:59.994Z,0
2017-01-22T05:47:59.953Z,0
2017-01-22T05:48:59.962Z,0
2017-01-22T05:49:59.965Z,0
2017-01-22T05:50:59.999Z,0
2017-01-22T05:51:59.976Z,0
2017-01-22T05:52:59.987Z,0
2017-01-22T05:53:59.962Z,0
2017-01-22T05:54:59.944Z,0
2017-01-22T05:55:59.961Z,0
2017-01-22T05:56:59.951Z,0
2017-01-22T05:57:59.957Z,0
2017-01-22T05:58:59.951Z,0
2017-01-22T05:59:59.968Z,0
2017-01-22T06:00:59.940Z,0
2017-01-22T06:01:59.973Z,0
2017-01-22T06:02:59.967Z,0
2017-01-22T06:04:00.000Z,0
2017-01-22T06:04:59.960Z,0
2017-01-22T06:05:59.968Z,0
2017-01-22T06:06:59.961Z,0
2017-01-22T06:07:59.960Z,0
2017-01-22T06:08:59.978Z,0
2017-01-22T06:09:59.974Z,0
2017-01-22T06:10:59.964Z,0
2017-01-22T06:11:59.963Z,0
2017-01-22T06:12:59.962Z,0
2017-01-22T06:13:59.986Z,0
2017-01-22T06:14:59.972Z,0
2017-01-22T06:15:59.969Z,0
2017-01-22T06:16:59.975Z,0
2017-01-22T06:17:59.997Z,0
2017-01-22T06:18:59.980Z,0
2017-01-22T06:19:59.981Z,0
2017-01-22T06:20:59.966Z,0
2017-01-22T06:21:59.966Z,0
2017-01-22T06:22:59.981Z,0
2017-01-22T06:23:59.988Z,0
2017-01-22T06:24:59.976Z,0
2017-01-22T06:25:59.980Z,0
2017-01-22T06:26:59.974Z,0
2017-01-22T06:27:59.983Z,0
2017-01-22T06:28:59.977Z,0
2017-01-22T06:29:59.981Z,0
2017-01-22T06:30:59.996Z,0
2017-01-22T06:31:59.962Z,0
2017-01-22T06:32:59.993Z,0
2017-01-22T06:33:59.978Z,0
2017-01-22T06:34:59.984Z,0
2017-01-22T06:35:59.984Z,0
2017-01-22T06:36:59.982Z,0
2017-01-22T06:37:59.994Z,0
2017-01-22T06:38:59.996Z,0
2017-01-22T06:40:00.002Z,0
2017-01-22T06:40:59.998Z,0
2017-01-22T06:41:59.974Z,4
2017-01-22T06:42:59.979Z,4
2017-01-22T06:43:59.996Z,4
2017-01-22T06:44:59.991Z,0
2017-01-22T06:46:00.011Z,0
2017-01-22T06:46:59.997Z,4
2017-01-22T06:47:59.980Z,4
2017-01-22T06:48:59.981Z,4
2017-01-22T06:49:59.978Z,4
2017-01-22T06:50:59.980Z,8
2017-01-22T06:52:00.004Z,8
2017-01-22T06:52:59.982Z,4
2017-01-22T06:54:00.000Z,12
2017-01-22T06:55:00.000Z,12
2017-01-22T06:55:59.987Z,12
2017-01-22T06:57:00.014Z,12
2017-01-22T06:57:59.984Z,16
2017-01-22T06:58:59.995Z,20
2017-01-22T06:59:59.999Z,20
2017-01-22T07:00:59.992Z,24
2017-01-22T07:02:00.004Z,28
2017-01-22T07:03:00.017Z,32
2017-01-22T07:04:00.011Z,36
2017-01-22T07:04:59.998Z,40
2017-01-22T07:06:00.009Z,48
2017-01-22T07:07:00.016Z,52
2017-01-22T07:08:00.003Z,60
2017-01-22T07:08:59.999Z,68
2017-01-22T07:09:59.999Z,76
2017-01-22T07:11:00.007Z,88
2017-01-22T07:12:00.030Z,96
2017-01-22T07:12:59.995Z,108
2017-01-22T07:13:59.991Z,124
2017-01-22T07:14:59.986Z,132
2017-01-22T07:16:00.005Z,152
2017-01-22T07:17:00.034Z,168
2017-01-22T07:17:59.997Z,184
2017-01-22T07:19:00.028Z,200
2017-01-22T07:20:00.019Z,216
2017-01-22T07:20:59.998Z,240
2017-01-22T07:21:59.994Z,256
2017-01-22T07:22:59.983Z,280
2017-01-22T07:24:00.001Z,300
2017-01-22T07:25:00.007Z,324
2017-01-22T07:26:00.016Z,348
2017-01-22T07:26:59.995Z,372
2017-01-22T07:27:59.996Z,400
2017-01-22T07:29:00.004Z,424
2017-01-22T07:29:59.999Z,452
2017-01-22T07:31:00.018Z,480
2017-01-22T07:32:00.043Z,508
2017-01-22T07:32:59.983Z,536
2017-01-22T07:34:00.001Z,568
2017-01-22T07:35:00.032Z,596
2017-01-22T07:36:00.018Z,628
2017-01-22T07:37:00.010Z,656
2017-01-22T07:38:00.036Z,688
2017-01-22T07:38:59.989Z,720
2017-01-22T07:40:00.024Z,752
2017-01-22T07:41:00.025Z,784
2017-01-22T07:42:00.006Z,812
2017-01-22T07:43:00.008Z,848
2017-01-22T07:44:00.045Z,880
2017-01-22T07:45:00.009Z,908
2017-01-22T07:46:00.013Z,940
2017-01-22T07:47:00.055Z,976
2017-01-22T07:48:00.054Z,1004
2017-01-22T07:49:00.023Z,1036
2017-01-22T07:50:00.018Z,1068
2017-01-22T07:51:00.050Z,1104
2017-01-22T07:52:00.023Z,1132
2017-01-22T07:53:00.022Z,1164
2017-01-22T07:54:00.046Z,1192
2017-01-22T07:55:00.018Z,1220
2017-01-22T07:56:00.025Z,1252
2017-01-22T07:57:00.036Z,1280
2017-01-22T07:58:00.029Z,1308
2017-01-22T07:59:00.025Z,1336
2017-01-22T08:00:00.044Z,1364
2017-01-22T08:01:00.032Z,1388
2017-01-22T08:02:00.043Z,1416
2017-01-22T08:03:00.041Z,1440
2017-01-22T08:04:00.035Z,1468
2017-01-22T08:05:00.017Z,1496
2017-01-22T08:06:00.043Z,1524
2017-01-22T08:07:00.030Z,1548
2017-01-22T08:08:00.021Z,1572
2017-01-22T08:09:00.066Z,1596
2017-01-22T08:10:00.041Z,1624
2017-01-22T08:11:00.065Z,1644
2017-01-22T08:12:00.117Z,1668
2017-01-22T08:13:00.044Z,1692
2017-01-22T08:14:00.028Z,1716
2017-01-22T08:15:00.043Z,1740
2017-01-22T08:16:00.057Z,1764
2017-01-22T08:17:00.028Z,1788
2017-01-22T08:18:00.056Z,1812
2017-01-22T08:19:00.034Z,1832
2017-01-22T08:20:00.057Z,1856
2017-01-22T08:21:00.020Z,1880
2017-01-22T08:22:00.048Z,1900
2017-01-22T08:23:00.109Z,1920
2017-01-22T08:24:00.150Z,1940
2017-01-22T08:25:00.091Z,1964
2017-01-22T08:26:00.031Z,1984
2017-01-22T08:27:00.028Z,2000
2017-01-22T08:28:00.021Z,2020
2017-01-22T08:29:00.030Z,2040
2017-01-22T08:30:00.019Z,2060
2017-01-22T08:31:00.034Z,2076
2017-01-22T08:32:00.031Z,2092
2017-01-22T08:33:00.042Z,2112
2017-01-22T08:34:00.035Z,2128
2017-01-22T08:35:00.080Z,2144
2017-01-22T08:36:00.042Z,2164
2017-01-22T08:37:00.034Z,2176
2017-01-22T08:38:00.038Z,2192
2017-01-22T08:39:00.075Z,2208
2017-01-22T08:40:06.407Z,2224
2017-01-22T08:41:00.527Z,2244
2017-01-22T08:42:00.040Z,2260
2017-01-22T08:43:02.144Z,2276
2017-01-22T08:44:00.064Z,2288
2017-01-22T08:45:00.105Z,2300
2017-01-22T08:46:00.055Z,2312
2017-01-22T08:47:00.043Z,2328
2017-01-22T08:48:00.064Z,2340
2017-01-22T08:49:01.954Z,2352
2017-01-22T08:50:00.079Z,2364
2017-01-22T08:51:00.754Z,2376
2017-01-22T08:52:00.052Z,2388
2017-01-22T08:53:01.062Z,2400
2017-01-22T08:54:00.068Z,2416
2017-01-22T08:55:00.045Z,2428
2017-01-22T08:56:00.037Z,2440
2017-01-22T08:57:00.027Z,2452
2017-01-22T08:58:00.045Z,2460
2017-01-22T08:59:00.054Z,2476
2017-01-22T09:00:00.057Z,2488
2017-01-22T09:01:00.075Z,2500
2017-01-22T09:02:00.110Z,2508
2017-01-22T09:03:00.071Z,2520
2017-01-22T09:04:00.075Z,2528
2017-01-22T09:05:00.342Z,2540
2017-01-22T09:06:00.087Z,2552
2017-01-22T09:07:00.077Z,2560
2017-01-22T09:08:00.059Z,2572
2017-01-22T09:09:00.228Z,2584
2017-01-22T09:10:00.066Z,2596
2017-01-22T09:11:00.084Z,2604
2017-01-22T09:12:00.093Z,2612
2017-01-22T09:13:00.066Z,2624
2017-01-22T09:14:00.056Z,2632
2017-01-22T09:15:00.079Z,2640
2017-01-22T09:16:00.068Z,2644
2017-01-22T09:17:00.066Z,2648
2017-01-22T09:18:00.096Z,2664
2017-01-22T09:19:00.101Z,2668
2017-01-22T09:20:00.122Z,2676
2017-01-22T09:21:00.072Z,2684
2017-01-22T09:22:00.091Z,2688
2017-01-22T09:23:00.146Z,2696
2017-01-22T09:24:00.292Z,2704
2017-01-22T09:25:00.158Z,2712
2017-01-22T09:26:00.110Z,2716
2017-01-22T09:27:00.139Z,2728
2017-01-22T09:28:00.079Z,2724
2017-01-22T09:29:00.101Z,2732
2017-01-22T09:30:00.617Z,2740
2017-01-22T09:31:00.083Z,2748
2017-01-22T09:32:00.577Z,2748
2017-01-22T09:33:00.395Z,2756
2017-01-22T09:34:00.080Z,2764
2017-01-22T09:35:00.102Z,2760
2017-01-22T09:36:00.475Z,2768
2017-01-22T09:37:00.079Z,2780
2017-01-22T09:38:00.072Z,2788
2017-01-22T09:39:00.123Z,2796
2017-01-22T09:40:00.194Z,2808
2017-01-22T09:41:00.118Z,2812
2017-01-22T09:42:00.094Z,2824
2017-01-22T09:43:00.077Z,2832
2017-01-22T09:44:00.085Z,2836
2017-01-22T09:45:00.154Z,2844
2017-01-22T09:46:00.081Z,2852
2017-01-22T09:47:00.090Z,2852
2017-01-22T09:48:00.096Z,2860
2017-01-22T09:49:00.122Z,2860
2017-01-22T09:50:00.071Z,2860
2017-01-22T09:51:00.107Z,2860
2017-01-22T09:52:00.118Z,2864
2017-01-22T09:53:00.116Z,2868
2017-01-22T09:54:00.095Z,2868
2017-01-22T09:55:00.096Z,2876
2017-01-22T09:56:00.088Z,2872
2017-01-22T09:57:00.075Z,2876
2017-01-22T09:58:00.115Z,2888
2017-01-22T09:59:00.111Z,2888
2017-01-22T10:00:00.089Z,2892
2017-01-22T10:01:00.109Z,2896
2017-01-22T10:02:00.117Z,2900
2017-01-22T10:03:00.106Z,2900
2017-01-22T10:04:00.121Z,2904
2017-01-22T10:05:00.114Z,2912
2017-01-22T10:06:00.327Z,2916
2017-01-22T10:07:00.117Z,2924
2017-01-22T10:08:00.110Z,2924
2017-01-22T10:09:00.146Z,2928
2017-01-22T10:10:00.117Z,2932
2017-01-22T10:11:00.155Z,2936
2017-01-22T10:12:00.091Z,2940
2017-01-22T10:13:00.127Z,2948
2017-01-22T10:14:00.106Z,2948
2017-01-22T10:15:00.123Z,2948
2017-01-22T10:16:00.109Z,2960
2017-01-22T10:17:00.099Z,2960
2017-01-22T10:18:00.110Z,2968
2017-01-22T10:19:00.086Z,2972
2017-01-22T10:20:00.108Z,2976
2017-01-22T10:21:00.100Z,2980
2017-01-22T10:22:00.156Z,2980
2017-01-22T10:23:00.136Z,2980
2017-01-22T10:24:00.113Z,2984
2017-01-22T10:25:00.128Z,2988
2017-01-22T10:26:00.181Z,2992
2017-01-22T10:27:00.104Z,2996
2017-01-22T10:28:00.096Z,2996
2017-01-22T10:29:00.143Z,2996
2017-01-22T10:30:00.122Z,3004
2017-01-22T10:31:00.130Z,3008
2017-01-22T10:32:00.115Z,3012
2017-01-22T10:33:00.093Z,3020
2017-01-22T10:34:00.137Z,3028
2017-01-22T10:35:00.148Z,3032
2017-01-22T10:36:00.131Z,3036
2017-01-22T10:37:00.122Z,3036
2017-01-22T10:38:00.135Z,3040
2017-01-22T10:39:00.140Z,3040
2017-01-22T10:40:00.131Z,3044
2017-01-22T10:41:00.129Z,3048
2017-01-22T10:42:00.134Z,3052
2017-01-22T10:43:00.110Z,3048
2017-01-22T10:44:00.152Z,3052
2017-01-22T10:45:00.110Z,3052
2017-01-22T10:46:00.117Z,3052
2017-01-22T10:47:00.132Z,3060
2017-01-22T10:48:00.128Z,3060
2017-01-22T10:49:00.106Z,3064
2017-01-22T10:50:00.113Z,3068
2017-01-22T10:51:00.117Z,3068
2017-01-22T10:52:00.116Z,3072
2017-01-22T10:53:00.145Z,3068
2017-01-22T10:54:00.204Z,3080
2017-01-22T10:55:00.138Z,3080
2017-01-22T10:56:00.174Z,3084
2017-01-22T10:57:00.165Z,3084
2017-01-22T10:58:00.124Z,3088
2017-01-22T10:59:00.136Z,3092
2017-01-22T11:00:00.156Z,3092
2017-01-22T11:01:00.123Z,3096
2017-01-22T11:02:00.148Z,3088
2017-01-22T11:03:00.146Z,3096
2017-01-22T11:04:00.121Z,3096
2017-01-22T11:05:00.150Z,3096
2017-01-22T11:06:00.141Z,3100
2017-01-22T11:07:00.134Z,3100
2017-01-22T11:08:00.140Z,3104
2017-01-22T11:09:00.156Z,3096
2017-01-22T11:10:00.128Z,3100
2017-01-22T11:11:00.151Z,3104
2017-01-22T11:12:00.156Z,3108
2017-01-22T11:13:00.169Z,3112
2017-01-22T11:14:00.164Z,3104
2017-01-22T11:15:00.182Z,3108
2017-01-22T11:16:00.128Z,3120
2017-01-22T11:17:00.161Z,3112
2017-01-22T11:18:00.139Z,3116
2017-01-22T11:19:00.200Z,3120
2017-01-22T11:20:00.171Z,3124
2017-01-22T11:21:00.137Z,3124
2017-01-22T11:22:00.150Z,3120
2017-01-22T11:23:00.155Z,3128
2017-01-22T11:24:00.163Z,3124
2017-01-22T11:25:00.203Z,3124
2017-01-22T11:26:00.179Z,3124
2017-01-22T11:27:00.162Z,3132
2017-01-22T11:28:00.170Z,3132
2017-01-22T11:29:00.155Z,3132
2017-01-22T11:30:00.190Z,3132
2017-01-22T11:31:00.179Z,3136
2017-01-22T11:32:00.203Z,3136
2017-01-22T11:33:00.211Z,3132
2017-01-22T11:34:00.140Z,3132
2017-01-22T11:35:00.160Z,3136
2017-01-22T11:36:00.133Z,3132
2017-01-22T11:37:00.162Z,3136
2017-01-22T11:38:00.171Z,3136
2017-01-22T11:39:00.169Z,3140
2017-01-22T11:40:00.151Z,3144
2017-01-22T11:41:00.169Z,3148
2017-01-22T11:42:00.132Z,3156
2017-01-22T11:43:00.162Z,3160
2017-01-22T11:44:00.753Z,3156
2017-01-22T11:45:00.183Z,3156
2017-01-22T11:46:01.126Z,3164
2017-01-22T11:47:00.188Z,3164
2017-01-22T11:48:00.541Z,3156
2017-01-22T11:49:00.165Z,3152
2017-01-22T11:50:00.142Z,3156
2017-01-22T11:51:00.160Z,3160
2017-01-22T11:52:00.167Z,3164
2017-01-22T11:53:00.215Z,3152
2017-01-22T11:54:00.152Z,3152
2017-01-22T11:55:00.202Z,3152
2017-01-22T11:56:00.154Z,3152
2017-01-22T11:57:00.180Z,3152
2017-01-22T11:58:00.180Z,3152
2017-01-22T11:59:00.159Z,3156
2017-01-22T12:00:00.150Z,3144
2017-01-22T12:01:00.200Z,3140
2017-01-22T12:02:00.200Z,3140
2017-01-22T12:03:00.173Z,3144
2017-01-22T12:04:00.183Z,3144
2017-01-22T12:05:00.179Z,3152
2017-01-22T12:06:00.198Z,3144
2017-01-22T12:07:00.197Z,3136
2017-01-22T12:08:00.211Z,3132
2017-01-22T12:09:00.211Z,3136
2017-01-22T12:10:00.216Z,3144
2017-01-22T12:11:00.182Z,3156
2017-01-22T12:12:00.183Z,3156
2017-01-22T12:13:00.213Z,3152
2017-01-22T12:14:00.191Z,3152
2017-01-22T12:15:00.183Z,3156
2017-01-22T12:16:00.195Z,3160
2017-01-22T12:17:00.217Z,3160
2017-01-22T12:18:00.156Z,3156
2017-01-22T12:19:00.208Z,3152
2017-01-22T12:20:00.223Z,3152
2017-01-22T12:21:00.180Z,3152
2017-01-22T12:22:00.184Z,3148
2017-01-22T12:23:00.211Z,3148
2017-01-22T12:24:00.209Z,3148
2017-01-22T12:25:00.204Z,3144
2017-01-22T12:26:00.204Z,3144
2017-01-22T12:27:00.204Z,3140
2017-01-22T12:28:00.202Z,3136
2017-01-22T12:29:00.201Z,3132
2017-01-22T12:30:00.212Z,3132
2017-01-22T12:31:00.169Z,3132
2017-01-22T12:32:00.178Z,3124
2017-01-22T12:33:00.196Z,3124
2017-01-22T12:34:00.213Z,3124
2017-01-22T12:35:00.185Z,3120
2017-01-22T12:36:00.221Z,3120
2017-01-22T12:37:00.222Z,3124
2017-01-22T12:38:00.197Z,3124
2017-01-22T12:39:00.203Z,3120
2017-01-22T12:40:00.195Z,3120
2017-01-22T12:41:00.216Z,3128
2017-01-22T12:42:00.217Z,3132
2017-01-22T12:43:00.218Z,3132
2017-01-22T12:44:00.228Z,3132
2017-01-22T12:45:00.213Z,3132
2017-01-22T12:46:00.220Z,3132
2017-01-22T12:47:00.211Z,3124
2017-01-22T12:48:00.216Z,3120
2017-01-22T12:49:00.201Z,3116
2017-01-22T12:50:00.246Z,3112
2017-01-22T12:51:00.216Z,3108
2017-01-22T12:52:00.220Z,3100
2017-01-22T12:53:00.210Z,3096
2017-01-22T12:54:00.492Z,3088
2017-01-22T12:55:00.216Z,3084
2017-01-22T12:56:00.220Z,3080
2017-01-22T12:57:00.195Z,3076
2017-01-22T12:58:00.236Z,3076
2017-01-22T12:59:00.205Z,3076
2017-01-22T13:00:00.221Z,3068
2017-01-22T13:01:00.256Z,3064
2017-01-22T13:02:00.356Z,3064
2017-01-22T13:03:00.821Z,3060
2017-01-22T13:04:00.234Z,3052
2017-01-22T13:05:00.211Z,3044
2017-01-22T13:06:00.230Z,3036
2017-01-22T13:07:00.235Z,3032
2017-01-22T13:08:00.213Z,3032
2017-01-22T13:09:00.251Z,3024
2017-01-22T13:10:00.447Z,3024
2017-01-22T13:11:00.261Z,3020
2017-01-22T13:12:00.695Z,3000
2017-01-22T13:13:00.244Z,3012
2017-01-22T13:14:00.240Z,3004
2017-01-22T13:15:00.233Z,3004
2017-01-22T13:16:00.232Z,2996
2017-01-22T13:17:00.269Z,2996
2017-01-22T13:18:00.251Z,2992
2017-01-22T13:19:00.246Z,2992
2017-01-22T13:20:00.241Z,2988
2017-01-22T13:21:00.233Z,2988
2017-01-22T13:22:00.224Z,2984
2017-01-22T13:23:00.227Z,2980
2017-01-22T13:24:00.212Z,2976
2017-01-22T13:25:00.276Z,2972
2017-01-22T13:26:00.247Z,2968
2017-01-22T13:27:00.249Z,2968
2017-01-22T13:28:00.234Z,2964
2017-01-22T13:29:00.234Z,2960
2017-01-22T13:30:00.285Z,2952
2017-01-22T13:31:00.238Z,2944
2017-01-22T13:32:00.239Z,2936
2017-01-22T13:33:00.236Z,2932
2017-01-22T13:34:00.256Z,2924
2017-01-22T13:35:00.252Z,2920
2017-01-22T13:36:00.288Z,2912
2017-01-22T13:37:00.268Z,2908
2017-01-22T13:38:00.229Z,2904
2017-01-22T13:39:00.230Z,2896
2017-01-22T13:40:00.238Z,2892
2017-01-22T13:41:00.246Z,2884
2017-01-22T13:42:00.245Z,2876
2017-01-22T13:43:00.262Z,2872
2017-01-22T13:44:00.240Z,2868
2017-01-22T13:45:03.114Z,2864
2017-01-22T13:46:00.313Z,2860
2017-01-22T13:47:00.258Z,2852
2017-01-22T13:48:03.258Z,2844
2017-01-22T13:49:00.256Z,2832
2017-01-22T13:50:00.271Z,2828
2017-01-22T13:51:00.259Z,2820
2017-01-22T13:52:00.266Z,2812
2017-01-22T13:53:01.488Z,2804
2017-01-22T13:54:00.280Z,2792
2017-01-22T13:55:00.253Z,2784
2017-01-22T13:56:00.268Z,2772
2017-01-22T13:57:00.913Z,2760
2017-01-22T13:58:00.258Z,2748
2017-01-22T13:59:00.273Z,2740
2017-01-22T14:00:00.262Z,2728
2017-01-22T14:01:00.274Z,2720
2017-01-22T14:02:00.279Z,2708
2017-01-22T14:03:00.237Z,2688